Time;durP1;ratioP1;P1;durP2;ratioP2;P2;SDS_P1;SDS_P2;PMS_P1;PMS_P2;Temp;Humidity;BMP_temperature;BMP_pressure;BME280_temperature;BME280_humidity;BME280_pressure;Samples;Min_cycle;Max_cycle;Signal;HPM_P1;HPM_P2
2023/07/20 00:06:48;;;;;;;1.70;0.93;;;18.40;96.80;;;;;;4807189;29;20057;-54
2023/07/20 00:09:24;;;;;;;3.15;0.85;;;18.30;96.90;;;;;;4806950;29;20050;-53
2023/07/20 00:12:08;;;;;;;4.30;1.20;;;18.30;97.10;;;;;;4807266;29;20062;-54
2023/07/20 00:24:56;;;;;;;4.78;1.08;;;18.30;97.50;;;;;;4824689;29;20078;-55
2023/07/20 00:30:51;;;;;;;2.67;1.10;;;18.20;97.50;;;;;;4824711;29;20060;-56
2023/07/20 00:33:28;;;;;;;;;;;;;;;;;;;;;
2023/07/20 00:43:50;;;;;;;2.13;1.25;;;18.20;97.60;;;;;;4811197;29;20129;-53
2023/07/20 00:46:29;;;;;;;2.42;1.20;;;18.10;97.90;;;;;;4806468;29;20532;-55
2023/07/20 01:03:51;;;;;;;2.92;1.92;;;17.70;98.70;;;;;;4789336;29;20458;-53
2023/07/20 01:06:19;;;;;;;4.57;2.00;;;17.60;98.80;;;;;;4795193;29;20122;-53
2023/07/20 01:12:39;;;;;;;3.30;1.73;;;17.50;99.00;;;;;;4839369;29;20062;-54
2023/07/20 01:15:09;;;;;;;4.22;1.95;;;17.40;99.10;;;;;;4823868;29;20107;-56
2023/07/20 01:24:26;;;;;;;4.45;2.08;;;17.30;99.30;;;;;;4877033;29;20538;-56
2023/07/20 01:27:14;;;;;;;2.83;1.63;;;17.20;99.50;;;;;;4857111;29;20057;-53
2023/07/20 01:29:42;;;;;;;2.65;1.70;;;17.20;99.90;;;;;;4861126;29;20059;-54
2023/07/20 01:32:36;;;;;;;4.35;1.80;;;17.10;99.80;;;;;;4859740;29;20093;-53
2023/07/20 01:35:04;;;;;;;3.00;2.00;;;17.10;99.90;;;;;;4876549;29;20049;-55
2023/07/20 01:37:33;;;;;;;3.53;1.98;;;17.10;99.90;;;;;;4860996;29;20510;-54
2023/07/20 01:40:01;;;;;;;5.47;1.70;;;17.10;99.90;;;;;;4861263;29;20724;-56
2023/07/20 01:45:14;;;;;;;3.50;1.90;;;17.00;99.90;;;;;;4872456;29;20053;-55
2023/07/20 01:47:42;;;;;;;2.90;1.80;;;17.00;99.90;;;;;;4832714;29;20097;-53
2023/07/20 01:54:29;;;;;;;5.68;3.00;;;17.10;99.90;;;;;;4786502;29;20145;-54
2023/07/20 01:57:02;;;;;;;4.18;2.80;;;17.00;99.90;;;;;;4792225;29;20055;-55
2023/07/20 01:59:32;;;;;;;4.30;2.80;;;17.00;99.90;;;;;;4864143;29;20105;-54
2023/07/20 02:01:59;;;;;;;4.65;3.03;;;17.10;99.90;;;;;;4879476;29;20045;-55
2023/07/20 02:04:26;;;;;;;4.18;2.70;;;17.00;99.90;;;;;;4863954;29;20073;-55
2023/07/20 02:10:09;;;;;;;4.85;2.90;;;17.00;99.90;;;;;;4844578;29;20054;-53
2023/07/20 02:12:37;;;;;;;4.85;2.75;;;17.00;99.90;;;;;;4860072;29;20053;-55
2023/07/20 02:15:21;;;;;;;3.83;2.40;;;17.00;99.90;;;;;;4855328;29;20485;-55
2023/07/20 02:17:57;;;;;;;4.13;2.45;;;16.90;99.90;;;;;;4879397;29;20053;-54
2023/07/20 02:20:25;;;;;;;3.92;2.50;;;16.90;99.90;;;;;;4878588;29;20060;-56
2023/07/20 02:23:01;;;;;;;3.75;2.40;;;16.80;99.90;;;;;;4863529;29;20105;-53
2023/07/20 02:43:41;;;;;;;6.30;2.03;;;16.50;99.90;;;;;;4880173;29;20040;-57
2023/07/20 02:46:08;;;;;;;3.17;2.10;;;16.50;99.90;;;;;;4875619;29;20131;-54
2023/07/20 02:48:35;;;;;;;3.72;2.17;;;16.50;99.90;;;;;;4861589;29;20502;-55
2023/07/20 02:51:18;;;;;;;3.83;2.08;;;16.50;99.90;;;;;;4875764;29;20045;-53
2023/07/20 02:53:46;;;;;;;4.55;2.30;;;16.60;99.90;;;;;;4875892;29;20048;-54
2023/07/20 02:56:15;;;;;;;4.00;2.45;;;16.60;99.90;;;;;;4861229;29;20413;-56
2023/07/20 03:05:40;;;;;;;;;;;;;;;;;;;;;
2023/07/20 03:08:25;;;;;;;3.83;2.15;;;16.60;99.90;;;;;;4804500;29;20042;-55
2023/07/20 03:11:38;;;;;;;4.00;2.45;;;16.60;99.90;;;;;;4786333;30;20055;-53
2023/07/20 03:14:25;;;;;;;4.80;2.10;;;16.60;99.90;;;;;;4780877;29;20066;-56
2023/07/20 03:23:38;;;;;;;4.32;2.17;;;16.50;99.90;;;;;;4761517;29;20533;-55
2023/07/20 03:26:08;;;;;;;3.35;1.95;;;16.50;99.90;;;;;;4846899;29;20085;-55
2023/07/20 03:28:35;;;;;;;4.72;2.22;;;16.50;99.90;;;;;;4875559;29;20045;-52
2023/07/20 03:35:28;;;;;;;3.30;2.10;;;16.40;99.90;;;;;;4864552;29;20127;-56
2023/07/20 03:37:56;;;;;;;4.47;2.17;;;16.30;99.90;;;;;;4878755;29;20054;-53
2023/07/20 03:40:29;;;;;;;4.45;1.90;;;16.20;99.90;;;;;;4878413;29;20045;-54
2023/07/20 03:54:07;;;;;;;;;;;;;;;;;;;;;
2023/07/20 03:56:35;;;;;;;4.00;1.92;;;16.40;99.90;;;;;;4865407;29;20057;-53
2023/07/20 03:59:03;;;;;;;3.30;2.17;;;16.40;99.90;;;;;;4881436;29;20110;-53
2023/07/20 04:01:40;;;;;;;2.83;1.80;;;16.40;99.90;;;;;;4881622;29;20052;-55
2023/07/20 04:14:14;;;;;;;2.80;1.95;;;16.20;99.90;;;;;;4881157;29;20138;-55
2023/07/20 04:27:42;;;;;;;5.38;2.25;;;15.90;99.90;;;;;;4825087;29;20103;-57
2023/07/20 04:30:22;;;;;;;3.47;2.00;;;15.90;99.90;;;;;;4824613;29;20047;-55
2023/07/20 04:32:49;;;;;;;4.40;2.13;;;15.90;99.90;;;;;;4824619;29;20110;-52
2023/07/20 04:35:21;;;;;;;3.42;2.22;;;15.90;99.90;;;;;;4854667;29;20131;-53
2023/07/20 04:37:49;;;;;;;3.22;1.95;;;15.90;99.90;;;;;;4880588;29;20049;-53
2023/07/20 04:40:18;;;;;;;4.07;2.50;;;15.80;99.90;;;;;;4880725;29;20053;-52
2023/07/20 04:42:46;;;;;;;3.83;2.15;;;15.80;99.90;;;;;;4880343;29;20139;-53
2023/07/20 04:45:26;;;;;;;4.38;2.20;;;15.70;99.90;;;;;;4864046;29;20389;-52
2023/07/20 04:51:32;;;;;;;3.28;1.85;;;15.70;99.90;;;;;;4881923;29;20040;-52
2023/07/20 04:54:02;;;;;;;3.55;2.10;;;15.70;99.90;;;;;;4880579;29;20049;-53
2023/07/20 04:56:41;;;;;;;4.55;2.38;;;15.70;99.90;;;;;;4865491;29;20053;-54
2023/07/20 04:59:20;;;;;;;5.13;2.30;;;15.70;99.90;;;;;;4864778;29;20060;-52
2023/07/20 05:01:47;;;;;;;3.25;2.30;;;15.70;99.90;;;;;;4880493;29;20053;-54
2023/07/20 05:05:09;;;;;;;5.25;2.28;;;15.60;99.90;;;;;;4841471;29;20606;-53
2023/07/20 05:07:39;;;;;;;4.18;2.10;;;15.60;99.90;;;;;;4826254;29;20098;-52
2023/07/20 05:10:09;;;;;;;4.35;2.15;;;15.60;99.90;;;;;;4826306;29;20052;-53
2023/07/20 05:12:57;;;;;;;4.75;2.20;;;15.60;99.90;;;;;;4849723;29;20588;-53
2023/07/20 05:15:34;;;;;;;5.68;2.20;;;15.70;99.90;;;;;;4881462;29;20044;-55
2023/07/20 05:18:12;;;;;;;6.10;2.38;;;15.80;99.90;;;;;;4879668;29;20049;-55
2023/07/20 05:24:07;;;;;;;3.20;1.90;;;16.10;99.90;;;;;;4881321;29;20092;-53
2023/07/20 05:30:33;;;;;;;2.90;1.70;;;16.30;99.90;;;;;;4881056;29;20036;-54
2023/07/20 05:33:37;;;;;;;3.53;1.90;;;16.40;99.90;;;;;;4880988;29;20056;-56
2023/07/20 05:39:34;;;;;;;3.38;2.03;;;16.60;99.90;;;;;;4860600;29;20048;-56
2023/07/20 05:42:17;;;;;;;;;;;;;;;;;;;;;
2023/07/20 05:45:50;;;;;;;;;;;;;;;;;;;;;
2023/07/20 05:48:47;;;;;;;6.80;2.30;;;17.00;99.90;;;;;;4841604;29;20066;-59
2023/07/20 05:54:15;;;;;;;5.90;2.15;;;17.20;99.90;;;;;;4823627;29;20110;-55
2023/07/20 05:56:46;;;;;;;4.60;2.38;;;17.30;99.90;;;;;;4834795;29;20050;-58
2023/07/20 18:16:46;;;;;;;2.60;1.27;;;22.60;73.30;;;;;;4151596;27;20016;-59
2023/07/20 18:19:28;;;;;;;3.47;1.20;;;22.50;73.20;;;;;;4916167;23;20205;-59
2023/07/20 18:22:54;;;;;;;2.90;1.10;;;22.50;73.60;;;;;;4873417;29;20063;-59
2023/07/20 18:25:30;;;;;;;2.85;1.42;;;22.40;73.20;;;;;;4905944;29;20045;-56
2023/07/20 18:31:40;;;;;;;1.85;1.17;;;22.20;73.30;;;;;;4942574;23;20060;-59
2023/07/20 18:34:15;;;;;;;2.05;1.30;;;22.20;73.60;;;;;;4860615;29;20150;-54
2023/07/20 18:36:42;;;;;;;2.42;1.30;;;22.20;73.80;;;;;;4861201;29;20037;-61
2023/07/20 18:39:18;;;;;;;2.40;1.20;;;22.10;74.00;;;;;;4862704;29;20382;-58
2023/07/20 18:44:50;;;;;;;3.72;1.52;;;22.10;74.70;;;;;;4802785;29;20051;-59
2023/07/20 18:47:18;;;;;;;4.93;1.40;;;22.00;75.30;;;;;;4833251;29;20114;-57
2023/07/20 18:49:54;;;;;;;4.32;1.73;;;22.00;75.70;;;;;;4845567;29;20397;-59
2023/07/20 18:52:28;;;;;;;2.80;1.38;;;21.90;75.80;;;;;;4845042;29;20480;-61
2023/07/20 18:54:57;;;;;;;2.65;1.50;;;21.90;76.20;;;;;;4860874;29;20046;-61
2023/07/20 18:57:25;;;;;;;3.00;1.60;;;21.80;76.50;;;;;;4860909;29;20045;-62
2023/07/20 19:00:13;;;;;;;4.47;1.40;;;21.80;76.70;;;;;;4860697;29;20141;-59
2023/07/20 19:02:41;;;;;;;3.15;1.42;;;21.70;77.70;;;;;;4859757;29;20057;-57
2023/07/20 19:05:08;;;;;;;3.30;1.30;;;21.70;78.20;;;;;;4864674;29;20110;-61
2023/07/20 19:07:35;;;;;;;2.80;1.20;;;21.60;78.40;;;;;;4864362;29;20049;-59
2023/07/20 19:10:04;;;;;;;6.00;1.77;;;21.50;78.80;;;;;;4864842;29;20101;-56
2023/07/20 19:12:31;;;;;;;4.55;1.25;;;21.40;79.20;;;;;;4858919;29;20041;-59
2023/07/20 19:14:59;;;;;;;5.38;1.40;;;21.40;79.50;;;;;;4858711;29;20050;-59
2023/07/20 19:17:26;;;;;;;3.97;1.48;;;21.40;79.40;;;;;;4858424;29;20049;-58
2023/07/20 19:19:53;;;;;;;4.10;1.40;;;21.40;79.50;;;;;;4858626;29;20045;-57
2023/07/20 19:22:21;;;;;;;4.85;1.70;;;21.30;79.60;;;;;;4864388;29;20055;-56
2023/07/20 19:24:48;;;;;;;4.78;1.25;;;21.30;79.90;;;;;;4864615;29;20045;-59
2023/07/20 19:27:18;;;;;;;2.47;1.25;;;21.20;79.80;;;;;;4864076;29;20049;-58
2023/07/20 19:29:46;;;;;;;2.83;1.48;;;21.20;80.00;;;;;;4857120;29;20057;-58
2023/07/20 19:32:13;;;;;;;2.42;1.45;;;21.10;80.20;;;;;;4858557;29;20106;-57
2023/07/20 19:34:40;;;;;;;3.38;1.23;;;21.10;80.30;;;;;;4863816;29;20033;-59
2023/07/20 19:37:11;;;;;;;3.25;1.40;;;21.00;80.60;;;;;;4864357;29;20382;-58
2023/07/20 19:39:44;;;;;;;2.90;1.42;;;20.90;80.70;;;;;;4858822;29;20051;-55
2023/07/20 19:42:15;;;;;;;3.00;1.30;;;20.90;80.90;;;;;;4863720;29;20092;-59
2023/07/20 19:44:42;;;;;;;2.65;1.63;;;20.80;80.90;;;;;;4864447;29;20130;-57
2023/07/20 19:47:09;;;;;;;2.33;1.10;;;20.70;81.00;;;;;;4863619;29;20041;-56
2023/07/20 19:49:37;;;;;;;2.70;1.50;;;20.70;81.30;;;;;;4864125;29;20038;-59
2023/07/20 19:52:14;;;;;;;2.35;1.23;;;20.60;81.60;;;;;;4845118;29;20049;-60
2023/07/20 19:54:42;;;;;;;4.82;1.65;;;20.60;81.90;;;;;;4855068;29;20087;-55
2023/07/20 19:57:34;;;;;;;3.45;1.77;;;20.50;81.90;;;;;;4853236;29;20086;-58
2023/07/20 20:00:51;;;;;;;3.53;1.55;;;20.50;82.10;;;;;;4845514;29;20045;-57
2023/07/20 20:03:22;;;;;;;4.00;1.70;;;20.50;82.40;;;;;;4844497;29;20560;-58
2023/07/20 20:05:57;;;;;;;2.28;1.45;;;20.40;82.70;;;;;;4843756;29;20068;-54
2023/07/20 20:08:29;;;;;;;7.00;2.08;;;20.40;83.10;;;;;;4843729;29;20077;-54
2023/07/20 20:10:56;;;;;;;4.10;1.67;;;20.30;83.60;;;;;;4843395;29;20046;-57
2023/07/20 20:16:52;;;;;;;3.00;1.58;;;20.20;84.60;;;;;;4841769;29;20167;-57
2023/07/20 20:19:21;;;;;;;3.47;1.67;;;20.20;84.90;;;;;;4843236;29;20131;-57
2023/07/20 20:21:52;;;;;;;4.10;2.22;;;20.10;85.60;;;;;;4827377;29;20057;-55
2023/07/20 20:24:28;;;;;;;6.30;1.90;;;20.00;87.20;;;;;;4843319;29;20075;-59
2023/07/20 20:27:18;;;;;;;4.78;2.00;;;19.90;87.80;;;;;;4845011;29;20128;-59
2023/07/20 20:32:42;;;;;;;5.55;2.00;;;19.80;88.70;;;;;;4860648;29;20049;-57
2023/07/20 20:35:27;;;;;;;3.85;2.20;;;19.80;89.10;;;;;;4865106;29;20045;-56
2023/07/20 20:38:34;;;;;;;3.22;2.13;;;19.70;89.90;;;;;;4850731;29;20114;-57
2023/07/20 20:41:02;;;;;;;4.82;2.03;;;19.60;90.00;;;;;;4863202;29;20046;-59
2023/07/20 20:43:39;;;;;;;6.22;2.30;;;19.60;90.20;;;;;;4862370;29;20045;-60
2023/07/20 20:46:12;;;;;;;5.65;2.33;;;19.50;90.20;;;;;;4863564;29;20045;-60
2023/07/20 20:49:17;;;;;;;4.80;2.42;;;19.40;90.30;;;;;;4845215;29;20057;-56
2023/07/20 20:51:44;;;;;;;4.50;2.50;;;19.30;90.40;;;;;;4863083;29;20072;-58
2023/07/20 20:54:15;;;;;;;5.22;2.58;;;19.30;90.40;;;;;;4846014;29;20120;-60
2023/07/20 20:56:45;;;;;;;10.30;2.90;;;19.30;90.60;;;;;;4862949;29;20046;-63
2023/07/20 20:59:23;;;;;;;;;;;;;;;;;;;;;
2023/07/20 21:02:01;;;;;;;4.70;2.72;;;19.20;90.80;;;;;;4862428;29;20052;-60
2023/07/20 21:04:36;;;;;;;4.55;2.85;;;19.10;90.90;;;;;;4832068;29;20049;-60
2023/07/20 21:07:04;;;;;;;5.95;2.63;;;19.10;90.90;;;;;;4861999;29;20042;-55
2023/07/20 21:09:33;;;;;;;4.50;2.72;;;19.10;90.90;;;;;;4846390;29;20053;-56
2023/07/20 21:12:23;;;;;;;5.50;3.25;;;19.10;90.90;;;;;;4807855;29;20139;-58
2023/07/20 21:14:50;;;;;;;5.72;2.95;;;19.00;90.90;;;;;;4846335;29;20127;-61
2023/07/20 21:17:17;;;;;;;4.88;3.13;;;19.00;91.00;;;;;;4845432;29;20059;-58
2023/07/20 21:20:12;;;;;;;4.97;2.92;;;19.00;91.00;;;;;;4862496;29;20060;-58
2023/07/20 21:22:38;;;;;;;6.20;3.20;;;18.90;91.10;;;;;;4848508;29;20062;-60
2023/07/20 21:25:08;;;;;;;7.32;3.38;;;18.90;91.00;;;;;;4870742;29;20047;-61
2023/07/20 21:27:44;;;;;;;3.95;2.78;;;19.00;91.00;;;;;;4836229;29;20044;-58
2023/07/20 21:30:11;;;;;;;4.18;3.08;;;18.90;91.10;;;;;;4868942;29;20097;-56
2023/07/20 21:32:39;;;;;;;4.15;3.20;;;18.90;91.20;;;;;;4842805;29;20049;-58
2023/07/20 21:35:07;;;;;;;5.38;3.50;;;18.80;91.20;;;;;;4860721;29;20053;-58
2023/07/20 21:37:34;;;;;;;4.40;3.05;;;18.80;91.20;;;;;;4862262;29;20049;-57
2023/07/20 21:40:04;;;;;;;4.75;3.40;;;18.80;91.10;;;;;;4863734;29;20057;-56
2023/07/20 21:42:31;;;;;;;4.13;3.00;;;18.70;91.20;;;;;;4847898;29;20053;-59
2023/07/20 21:44:58;;;;;;;4.47;3.00;;;18.70;91.20;;;;;;4846197;29;20045;-61
2023/07/20 21:47:29;;;;;;;6.40;3.50;;;18.70;91.30;;;;;;4862410;29;20046;-61
2023/07/20 21:50:02;;;;;;;5.18;3.30;;;18.60;91.20;;;;;;4845701;29;20136;-57
2023/07/20 21:52:40;;;;;;;5.05;2.88;;;18.60;91.30;;;;;;4861677;29;20050;-57
2023/07/20 21:55:17;;;;;;;;;;;;;;;;;;;;;
2023/07/20 21:57:45;;;;;;;3.88;3.20;;;18.60;91.20;;;;;;4860486;29;20059;-57
2023/07/20 22:00:53;;;;;;;5.35;2.95;;;18.50;91.20;;;;;;4853091;29;20077;-60
2023/07/20 22:04:13;;;;;;;5.43;3.13;;;18.40;91.30;;;;;;4868308;29;20064;-59
2023/07/20 22:06:46;;;;;;;4.30;3.00;;;18.40;91.30;;;;;;4880868;29;20053;-54
2023/07/20 22:09:16;;;;;;;3.80;3.08;;;18.40;91.30;;;;;;4880786;29;20044;-57
2023/07/20 22:11:46;;;;;;;4.40;3.00;;;18.30;91.30;;;;;;4880819;29;20048;-60
2023/07/20 22:14:15;;;;;;;4.10;2.85;;;18.30;91.40;;;;;;4881751;29;20041;-60
2023/07/20 22:16:42;;;;;;;5.32;3.47;;;18.30;91.30;;;;;;4880960;29;20426;-58
2023/07/20 22:19:09;;;;;;;5.35;3.25;;;18.30;91.30;;;;;;4883179;29;20049;-55
2023/07/20 22:21:37;;;;;;;4.45;2.67;;;18.30;91.40;;;;;;4885299;29;20118;-59
2023/07/20 22:24:22;;;;;;;4.72;3.00;;;18.30;91.30;;;;;;4880232;29;20029;-58
2023/07/20 22:30:21;;;;;;;3.97;2.70;;;18.30;91.40;;;;;;4870941;29;20117;-58
2023/07/20 22:32:58;;;;;;;3.80;2.90;;;18.30;91.40;;;;;;4880595;29;20070;-60
2023/07/20 22:35:27;;;;;;;3.83;3.08;;;18.30;91.40;;;;;;4880580;29;20134;-60
2023/07/20 22:37:55;;;;;;;5.47;3.20;;;18.30;91.50;;;;;;4862755;29;20048;-60
2023/07/20 22:40:29;;;;;;;4.97;3.40;;;18.30;91.60;;;;;;4880581;29;20053;-61
2023/07/20 22:42:58;;;;;;;4.85;3.67;;;18.30;91.60;;;;;;4879745;29;20125;-56
2023/07/20 22:45:27;;;;;;;5.45;3.45;;;18.30;91.60;;;;;;4863982;29;20038;-60
2023/07/20 22:47:54;;;;;;;9.68;3.70;;;18.30;91.80;;;;;;4863015;29;20059;-56
2023/07/20 22:57:35;;;;;;;4.22;3.50;;;18.20;92.00;;;;;;4786956;30;20077;-58
2023/07/20 23:00:08;;;;;;;4.63;3.70;;;18.20;92.00;;;;;;4786325;29;20055;-60
2023/07/20 23:02:42;;;;;;;6.15;4.18;;;18.10;92.10;;;;;;4803299;29;20051;-57
2023/07/20 23:05:10;;;;;;;5.10;3.60;;;18.00;92.20;;;;;;4804938;29;20047;-54
2023/07/20 23:07:37;;;;;;;5.72;4.30;;;18.00;92.30;;;;;;4804629;29;20141;-59
2023/07/20 23:10:08;;;;;;;5.65;4.38;;;18.00;92.50;;;;;;4804417;29;20047;-59
2023/07/20 23:12:38;;;;;;;4.55;3.80;;;17.90;92.60;;;;;;4805005;29;20058;-57
2023/07/20 23:15:33;;;;;;;;;;;;;;;;;;;;;
2023/07/20 23:18:07;;;;;;;5.93;4.43;;;17.80;92.60;;;;;;4804958;29;20047;-60
2023/07/20 23:20:38;;;;;;;6.78;5.13;;;17.80;92.70;;;;;;4804797;29;20059;-56
2023/07/20 23:23:07;;;;;;;6.50;4.88;;;17.80;92.70;;;;;;4804483;29;20153;-55
2023/07/20 23:25:35;;;;;;;6.05;4.85;;;17.70;92.70;;;;;;4804272;29;20054;-60
2023/07/20 23:28:02;;;;;;;7.40;4.43;;;17.80;92.70;;;;;;4850720;29;20053;-58
2023/07/20 23:30:30;;;;;;;7.60;4.57;;;17.80;92.70;;;;;;4878405;29;20044;-61
2023/07/20 23:32:57;;;;;;;5.93;4.35;;;17.80;92.70;;;;;;4880050;29;20037;-56
2023/07/20 23:35:27;;;;;;;7.13;4.43;;;17.80;92.80;;;;;;4878784;29;20052;-57
2023/07/20 23:38:00;;;;;;;5.75;4.43;;;17.70;92.80;;;;;;4879567;29;20052;-62
2023/07/20 23:40:28;;;;;;;6.35;4.53;;;17.70;92.80;;;;;;4879474;29;20045;-61
2023/07/20 23:43:16;;;;;;;6.65;4.18;;;17.70;92.90;;;;;;4876412;29;20061;-58
2023/07/20 23:45:44;;;;;;;7.95;4.30;;;17.70;92.80;;;;;;4879797;29;20045;-54
2023/07/20 23:48:29;;;;;;;7.28;3.60;;;17.70;92.80;;;;;;4879256;29;20077;-60
2023/07/20 23:54:09;;;;;;;7.78;3.97;;;17.60;92.90;;;;;;4883146;29;20044;-61
2023/07/20 23:56:37;;;;;;;7.25;3.65;;;17.60;93.10;;;;;;4882077;29;20049;-56
2023/07/20 23:59:04;;;;;;;6.78;4.13;;;17.60;93.10;;;;;;4882717;29;20041;-56
